Time;durP1;ratioP1;P1;durP2;ratioP2;P2;SDS_P1;SDS_P2;PMS_P1;PMS_P2;Temp;Humidity;BMP_temperature;BMP_pressure;BME280_temperature;BME280_humidity;BME280_pressure;Samples;Min_cycle;Max_cycle;Signal;HPM_P1;HPM_P2
2022/12/03 00:01:26;;;;;;;29.03;15.50;;;;;;;2.61;89.74;102756.69;4990889;28;20219;-72
2022/12/03 00:03:52;;;;;;;28.13;15.47;;;;;;;2.59;89.33;102754.78;4992179;28;20219;-73
2022/12/03 00:06:17;;;;;;;29.30;16.40;;;;;;;2.55;89.56;102756.19;4992131;28;20199;-72
2022/12/03 00:08:43;;;;;;;25.63;15.03;;;;;;;2.54;90.09;102751.00;4990929;28;20230;-73
2022/12/03 00:11:08;;;;;;;26.70;15.13;;;;;;;2.54;89.70;102756.97;4990673;28;20216;-73
2022/12/03 00:13:34;;;;;;;28.60;15.03;;;;;;;2.54;89.93;102748.47;4992024;28;20183;-73
2022/12/03 00:15:59;;;;;;;30.47;15.53;;;;;;;2.53;90.29;102751.78;4990788;28;20195;-72
2022/12/03 00:18:24;;;;;;;31.97;15.97;;;;;;;2.51;90.32;102753.28;4992183;28;20187;-73
2022/12/03 00:20:50;;;;;;;28.57;15.50;;;;;;;2.49;89.72;102750.63;4992188;28;20219;-73
2022/12/03 00:23:15;;;;;;;33.17;16.00;;;;;;;2.47;90.20;102754.66;4992038;28;20195;-71
2022/12/03 00:25:41;;;;;;;31.87;16.43;;;;;;;2.49;90.27;102750.63;4991937;28;20216;-73
2022/12/03 00:28:06;;;;;;;33.00;15.97;;;;;;;2.48;89.76;102750.50;4990289;28;20263;-73
2022/12/03 00:30:32;;;;;;;29.63;15.37;;;;;;;2.46;90.09;102754.53;4990327;28;20336;-71
2022/12/03 00:32:57;;;;;;;33.17;16.67;;;;;;;2.44;89.99;102751.88;4990267;28;20635;-71
2022/12/03 00:35:23;;;;;;;28.40;16.37;;;;;;;2.42;89.57;102745.84;4991234;28;20191;-73
2022/12/03 00:37:48;;;;;;;33.60;16.47;;;;;;;2.40;89.79;102754.94;4990901;28;20200;-72
2022/12/03 00:40:14;;;;;;;30.07;16.43;;;;;;;2.36;89.57;102754.56;4989713;28;20218;-73
2022/12/03 00:42:40;;;;;;;32.57;17.37;;;;;;;2.34;89.09;102746.84;4989533;28;20191;-73
2022/12/03 00:45:05;;;;;;;31.33;16.57;;;;;;;2.34;89.33;102758.63;4990274;28;20196;-72
2022/12/03 00:47:31;;;;;;;34.30;17.63;;;;;;;2.31;89.21;102756.72;4991319;28;20311;-72
2022/12/03 00:49:56;;;;;;;34.73;18.03;;;;;;;2.30;88.96;102754.06;4990535;28;20224;-73
2022/12/03 00:52:22;;;;;;;38.63;20.17;;;;;;;2.23;89.08;102760.25;4990922;28;20314;-73
2022/12/03 00:54:47;;;;;;;35.57;18.00;;;;;;;2.23;89.40;102765.28;4991303;28;20210;-73
2022/12/03 00:57:13;;;;;;;34.57;17.73;;;;;;;2.20;88.89;102759.97;4989304;28;20195;-72
2022/12/03 00:59:39;;;;;;;34.73;19.20;;;;;;;2.19;88.82;102755.69;4990250;28;20607;-73
2022/12/03 01:02:05;;;;;;;36.43;18.43;;;;;;;2.19;88.81;102768.31;4990819;28;20187;-72
2022/12/03 01:04:32;;;;;;;35.03;17.90;;;;;;;2.14;88.45;102766.16;4990914;28;20203;-73
2022/12/03 01:06:58;;;;;;;39.33;17.53;;;;;;;2.15;88.85;102780.59;4990882;28;20594;-72
2022/12/03 01:09:24;;;;;;;39.20;18.53;;;;;;;2.14;88.91;102772.09;4990840;28;20187;-73
2022/12/03 01:11:49;;;;;;;36.77;18.00;;;;;;;2.11;89.33;102766.78;4990573;28;20219;-72
2022/12/03 01:14:17;;;;;;;39.97;19.90;;;;;;;2.11;89.70;102776.88;4989265;28;20184;-72
2022/12/03 01:16:43;;;;;;;40.53;19.00;;;;;;;2.05;88.82;102768.81;4989156;28;20189;-71
2022/12/03 01:19:09;;;;;;;40.80;19.70;;;;;;;2.02;88.53;102771.06;4988998;28;20257;-73
2022/12/03 01:21:36;;;;;;;40.03;19.57;;;;;;;1.99;88.26;102769.94;4985998;28;21047;-71
2022/12/03 01:24:02;;;;;;;42.03;19.30;;;;;;;1.96;88.20;102770.56;4988535;28;20191;-71
2022/12/03 01:26:27;;;;;;;43.53;20.53;;;;;;;1.95;88.01;102766.28;4989457;28;20265;-71
2022/12/03 01:28:53;;;;;;;38.73;19.60;;;;;;;1.92;87.67;102763.47;4990764;28;20275;-73
2022/12/03 01:34:04;;;;;;;41.00;19.57;;;;;;;1.89;88.49;102760.69;4985593;28;20216;-72
2022/12/03 01:36:29;;;;;;;42.67;19.70;;;;;;;1.86;88.23;102764.59;4990615;28;20192;-73
2022/12/03 01:38:54;;;;;;;42.20;20.57;;;;;;;1.84;88.85;102763.59;4990566;28;20203;-73
2022/12/03 01:41:22;;;;;;;42.43;20.40;;;;;;;1.81;88.92;102761.69;4986837;28;20203;-71
2022/12/03 01:43:50;;;;;;;39.47;19.50;;;;;;;1.83;88.29;102772.81;4988829;28;20657;-73
2022/12/03 01:46:20;;;;;;;40.23;19.53;;;;;;;1.81;88.72;102768.38;4989611;28;20184;-73
2022/12/03 01:48:48;;;;;;;46.87;20.87;;;;;;;1.77;88.54;102764.72;4989393;28;20206;-73
2022/12/03 01:51:13;;;;;;;36.93;19.10;;;;;;;1.76;89.18;102767.09;4987751;28;20219;-73
2022/12/03 01:53:39;;;;;;;38.50;19.57;;;;;;;1.74;88.95;102776.22;4986809;28;20635;-73
2022/12/03 01:56:05;;;;;;;41.20;20.33;;;;;;;1.76;89.35;102772.16;4984992;28;20196;-72
2022/12/03 01:58:31;;;;;;;47.27;20.57;;;;;;;1.71;89.32;102778.47;4990410;28;20203;-72
2022/12/03 02:01:03;;;;;;;44.87;21.67;;;;;;;1.68;89.26;102778.19;4988601;28;20266;-73
2022/12/03 02:03:28;;;;;;;46.57;21.30;;;;;;;1.64;89.18;102771.09;4985952;28;20564;-73
2022/12/03 02:05:53;;;;;;;41.57;20.50;;;;;;;1.66;89.22;102780.56;4987264;28;20192;-71
2022/12/03 02:08:29;;;;;;;44.07;20.20;;;;;;;1.61;88.86;102778.44;4984274;28;20205;-72
2022/12/03 02:10:57;;;;;;;44.80;22.53;;;;;;;1.57;89.21;102777.28;4988473;28;20688;-73
2022/12/03 02:13:23;;;;;;;45.83;21.53;;;;;;;1.57;88.77;102773.88;4985956;28;20195;-72
2022/12/03 02:15:48;;;;;;;46.57;21.30;;;;;;;1.54;88.69;102768.56;4984739;28;20564;-72
2022/12/03 02:18:14;;;;;;;44.67;21.37;;;;;;;1.47;89.40;102776.38;4990235;28;20184;-73
2022/12/03 02:21:01;;;;;;;45.10;21.00;;;;;;;1.52;89.15;102773.47;4990249;28;20227;-73
2022/12/03 02:23:45;;;;;;;45.70;21.70;;;;;;;1.48;88.86;102768.03;4984105;28;20200;-73
2022/12/03 02:26:10;;;;;;;44.80;20.67;;;;;;;1.42;89.16;102770.03;4988490;28;20246;-72
2022/12/03 02:28:37;;;;;;;47.10;22.00;;;;;;;1.42;89.13;102775.94;4988698;28;20704;-72
2022/12/03 02:31:04;;;;;;;47.87;22.33;;;;;;;1.43;89.01;102779.38;4983481;28;20211;-72
2022/12/03 02:33:30;;;;;;;41.10;20.73;;;;;;;1.40;88.48;102780.00;4989534;28;20242;-72
2022/12/03 02:35:56;;;;;;;47.13;21.17;;;;;;;1.36;88.51;102774.53;4987367;28;20192;-72
2022/12/03 02:38:24;;;;;;;47.77;22.27;;;;;;;1.32;89.18;102773.38;4988539;28;20198;-73
2022/12/03 02:40:55;;;;;;;50.77;22.97;;;;;;;1.32;88.23;102777.56;4987462;28;20223;-71
2022/12/03 02:43:21;;;;;;;48.67;22.00;;;;;;;1.27;88.90;102777.16;4987318;28;20295;-72
2022/12/03 02:45:55;;;;;;;44.63;21.40;;;;;;;1.26;87.89;102771.97;4985909;28;20192;-72
2022/12/03 02:48:38;;;;;;;51.90;23.00;;;;;;;1.26;88.89;102777.00;4985914;28;20235;-72
2022/12/03 02:51:08;;;;;;;45.67;22.27;;;;;;;1.23;87.78;102776.78;4989117;28;20218;-73
2022/12/03 02:53:41;;;;;;;48.13;21.80;;;;;;;1.26;88.13;102772.88;4989753;28;20638;-73
2022/12/03 02:56:08;;;;;;;43.63;20.77;;;;;;;1.19;88.23;102769.69;4987960;28;20184;-73
2022/12/03 02:58:34;;;;;;;47.17;21.70;;;;;;;1.20;88.42;102772.34;4989525;28;20191;-73
2022/12/03 03:01:02;;;;;;;49.90;22.53;;;;;;;1.17;89.12;102773.69;4989911;28;20626;-72
2022/12/03 03:03:29;;;;;;;46.10;21.07;;;;;;;1.12;88.34;102773.31;4977776;28;20188;-73
2022/12/03 03:05:55;;;;;;;52.10;23.47;;;;;;;1.13;88.12;102772.53;4988415;28;20700;-71
2022/12/03 03:08:23;;;;;;;49.17;23.50;;;;;;;1.13;88.73;102770.03;4986123;28;20208;-73
2022/12/03 03:10:48;;;;;;;49.33;23.07;;;;;;;1.13;88.76;102775.06;4989536;28;20234;-73
2022/12/03 03:13:16;;;;;;;48.13;22.43;;;;;;;1.11;88.51;102778.22;4987529;28;20211;-73
2022/12/03 03:15:42;;;;;;;51.07;21.63;;;;;;;1.11;88.70;102768.13;4991517;28;20204;-73
2022/12/03 03:18:09;;;;;;;45.10;21.00;;;;;;;1.11;89.35;102770.63;4992215;28;20184;-72
2022/12/03 03:20:36;;;;;;;50.67;22.70;;;;;;;1.09;89.36;102767.97;4989105;28;20749;-73
2022/12/03 03:23:10;;;;;;;47.50;22.10;;;;;;;1.04;88.61;102758.22;4992702;28;20246;-73
2022/12/03 03:25:38;;;;;;;42.53;21.47;;;;;;;1.03;89.51;102767.44;4988798;28;20230;-73
2022/12/03 03:28:04;;;;;;;51.10;23.37;;;;;;;1.03;89.18;102764.94;4992704;28;20211;-73
2022/12/03 03:30:31;;;;;;;51.43;22.83;;;;;;;1.05;89.18;102772.63;4993140;28;20257;-73
2022/12/03 03:32:57;;;;;;;45.23;21.40;;;;;;;1.03;88.22;102772.50;4991568;28;20188;-73
2022/12/03 03:35:24;;;;;;;49.70;23.50;;;;;;;1.03;89.23;102771.59;4990116;28;20653;-73
2022/12/03 03:37:52;;;;;;;48.53;21.63;;;;;;;1.01;88.80;102775.63;4992684;28;20184;-73
2022/12/03 03:40:19;;;;;;;49.73;22.63;;;;;;;1.00;88.07;102773.88;4990989;28;20583;-73
2022/12/03 03:42:45;;;;;;;47.50;22.30;;;;;;;0.97;88.83;102766.94;4992608;28;20211;-72
2022/12/03 03:45:11;;;;;;;48.47;23.13;;;;;;;0.95;89.10;102763.38;4992538;28;20199;-72
2022/12/03 03:47:36;;;;;;;52.33;24.43;;;;;;;0.95;89.46;102765.00;4990418;28;20306;-73
2022/12/03 03:50:02;;;;;;;48.97;23.33;;;;;;;0.97;89.24;102766.03;4992454;28;20219;-72
2022/12/03 03:52:29;;;;;;;50.43;22.90;;;;;;;0.96;89.13;102762.59;4988459;28;20211;-72
2022/12/03 03:54:54;;;;;;;52.83;23.60;;;;;;;0.96;89.08;102770.16;4991031;28;20191;-73
2022/12/03 03:57:20;;;;;;;48.50;22.57;;;;;;;0.96;89.35;102771.81;4991310;28;20188;-73
2022/12/03 03:59:45;;;;;;;54.33;25.20;;;;;;;0.93;89.64;102767.41;4992403;28;20192;-73
2022/12/03 04:02:21;;;;;;;51.13;23.70;;;;;;;0.92;89.56;102765.59;4992586;28;20227;-73
2022/12/03 04:04:47;;;;;;;50.57;23.93;;;;;;;0.91;89.40;102761.31;4992130;28;20183;-71
2022/12/03 04:07:14;;;;;;;48.97;22.83;;;;;;;0.89;90.12;102759.41;5003694;28;20303;-73
2022/12/03 04:09:39;;;;;;;54.97;23.90;;;;;;;0.86;89.25;102759.16;4990710;28;20187;-71
2022/12/03 04:14:49;;;;;;;47.83;23.37;;;;;;;0.84;90.38;102756.50;4990222;28;20188;-73
2022/12/03 04:17:14;;;;;;;52.93;22.03;;;;;;;0.85;90.42;102750.72;4991896;28;20183;-73
2022/12/03 04:19:39;;;;;;;55.97;23.70;;;;;;;0.85;89.40;102757.38;4990695;28;20214;-71
2022/12/03 04:24:49;;;;;;;49.13;22.63;;;;;;;0.86;90.02;102762.56;4987045;28;20275;-73
2022/12/03 04:29:58;;;;;;;53.63;22.73;;;;;;;0.84;90.19;102758.13;4990566;28;20227;-72
2022/12/03 04:37:53;;;;;;;53.03;23.00;;;;;;;0.77;90.26;102759.22;4988860;28;20246;-71
2022/12/03 04:43:02;;;;;;;51.27;24.07;;;;;;;0.78;90.16;102763.50;4991399;28;20199;-73
2022/12/03 04:45:28;;;;;;;49.50;22.77;;;;;;;0.80;90.94;102756.97;4989747;28;20275;-73
2022/12/03 04:47:53;;;;;;;53.20;24.27;;;;;;;0.79;89.88;102759.38;4989950;28;20242;-73
2022/12/03 04:50:18;;;;;;;47.93;22.87;;;;;;;0.77;90.63;102765.91;4990492;28;20350;-73
2022/12/03 04:52:44;;;;;;;48.53;22.57;;;;;;;0.77;90.67;102761.75;4990596;28;20347;-72
2022/12/03 04:55:09;;;;;;;45.43;22.07;;;;;;;0.78;89.44;102758.47;4990222;28;20191;-72
2022/12/03 04:57:35;;;;;;;51.90;23.33;;;;;;;0.78;89.87;102755.94;4988517;28;20399;-73
2022/12/03 05:00:00;;;;;;;51.57;23.77;;;;;;;0.77;89.85;102754.19;4990091;28;20267;-72
2022/12/03 05:02:26;;;;;;;50.57;23.40;;;;;;;0.71;90.14;102750.22;4989784;28;20218;-72
2022/12/03 05:04:51;;;;;;;51.57;23.90;;;;;;;0.71;90.20;102747.72;4986535;28;20191;-72
2022/12/03 05:07:17;;;;;;;58.43;24.80;;;;;;;0.72;90.14;102757.94;4990987;28;20633;-72
2022/12/03 05:09:42;;;;;;;52.53;24.73;;;;;;;0.69;89.64;102739.13;4989592;28;20199;-73
2022/12/03 05:12:08;;;;;;;53.33;23.37;;;;;;;0.70;90.20;102738.38;4986384;28;20237;-73
2022/12/03 05:14:34;;;;;;;54.73;25.10;;;;;;;0.67;89.65;102731.44;4990046;28;20192;-71
2022/12/03 05:16:59;;;;;;;51.17;22.57;;;;;;;0.69;89.49;102734.97;4990467;28;20195;-72
2022/12/03 05:20:40;;;;;;;49.80;22.83;;;;;;;0.70;90.52;102741.81;4989750;28;20206;-73
2022/12/03 05:22:10;;;;;;;51.73;24.33;;;;;;;0.72;90.47;102735.25;4986251;28;20191;-72
2022/12/03 05:24:35;;;;;;;52.00;22.90;;;;;;;0.74;89.60;102738.81;4988382;28;20192;-72
2022/12/03 05:27:01;;;;;;;54.50;23.20;;;;;;;0.71;89.63;102733.47;4986449;28;20688;-73
2022/12/03 05:29:26;;;;;;;46.60;22.23;;;;;;;0.74;90.16;102735.38;4988473;28;20195;-71
2022/12/03 05:31:51;;;;;;;45.33;23.00;;;;;;;0.75;90.10;102732.09;4983723;28;20212;-73
2022/12/03 05:34:17;;;;;;;49.13;23.10;;;;;;;0.66;90.15;102729.69;4987772;28;20664;-72
2022/12/03 05:36:42;;;;;;;49.00;23.83;;;;;;;0.68;90.48;102735.72;4986740;28;20192;-72
2022/12/03 05:39:07;;;;;;;52.73;23.00;;;;;;;0.67;89.81;102736.47;4982508;28;20187;-73
2022/12/03 05:44:17;;;;;;;51.10;23.50;;;;;;;0.63;90.80;102726.88;4988317;28;20180;-73
2022/12/03 05:46:42;;;;;;;48.53;22.37;;;;;;;0.63;90.78;102734.44;4990742;28;20613;-73
2022/12/03 05:49:08;;;;;;;53.50;23.27;;;;;;;0.63;90.61;102726.88;4989567;28;20214;-73
2022/12/03 05:51:33;;;;;;;45.93;22.60;;;;;;;0.62;90.63;102725.09;4990737;28;20215;-72
2022/12/03 05:53:59;;;;;;;47.30;22.20;;;;;;;0.62;89.79;102735.19;4989240;28;20203;-73
2022/12/03 05:56:24;;;;;;;46.50;21.90;;;;;;;0.64;89.90;102737.84;4989546;28;20200;-73
2022/12/03 05:58:49;;;;;;;56.80;23.50;;;;;;;0.65;90.23;102729.53;4985783;28;20188;-73
2022/12/03 06:01:15;;;;;;;41.87;21.00;;;;;;;0.68;90.27;102724.78;4989512;28;20433;-73
2022/12/03 06:03:40;;;;;;;47.80;23.83;;;;;;;0.68;89.97;102734.84;4986165;28;20277;-73
2022/12/03 06:06:06;;;;;;;51.23;22.00;;;;;;;0.67;89.89;102728.91;4989148;28;20195;-73
2022/12/03 06:08:31;;;;;;;48.70;21.73;;;;;;;0.65;89.99;102725.41;4990469;28;20220;-73
2022/12/03 06:10:57;;;;;;;46.07;22.63;;;;;;;0.68;90.84;102719.75;4990556;28;20836;-72
2022/12/03 06:13:22;;;;;;;45.20;22.17;;;;;;;0.66;90.06;102721.22;4989856;28;20676;-72
2022/12/03 06:15:47;;;;;;;47.33;22.00;;;;;;;0.66;90.83;102717.06;4990312;28;20282;-73
2022/12/03 06:18:13;;;;;;;55.37;22.33;;;;;;;0.71;90.01;102720.88;4990101;28;20194;-72
2022/12/03 06:20:38;;;;;;;47.33;22.93;;;;;;;0.69;90.77;102724.88;4990185;28;20305;-73
2022/12/03 06:23:04;;;;;;;44.77;21.13;;;;;;;0.65;89.89;102720.34;4987588;28;20183;-72
2022/12/03 06:25:29;;;;;;;46.60;21.77;;;;;;;0.64;89.82;102713.50;4990128;28;20676;-72
2022/12/03 06:27:55;;;;;;;45.60;21.53;;;;;;;0.65;90.40;102710.28;4988876;28;21129;-73
2022/12/03 06:30:20;;;;;;;42.57;21.20;;;;;;;0.65;90.06;102716.94;4990035;28;20223;-72
2022/12/03 06:32:45;;;;;;;44.43;21.27;;;;;;;0.67;90.73;102715.41;4988646;28;20278;-70
2022/12/03 06:35:11;;;;;;;44.70;22.10;;;;;;;0.67;90.07;102707.84;4986419;28;20196;-72
2022/12/03 06:37:36;;;;;;;40.90;21.17;;;;;;;0.65;90.43;102700.19;4990145;28;20537;-72
2022/12/03 06:40:03;;;;;;;39.53;21.07;;;;;;;0.64;90.02;102705.09;4988987;28;20239;-73
2022/12/03 06:42:28;;;;;;;46.97;21.00;;;;;;;0.63;89.90;102709.22;4990091;28;20209;-72
2022/12/03 06:44:53;;;;;;;44.30;21.00;;;;;;;0.64;90.06;102705.09;4988595;28;20267;-73
2022/12/03 06:47:19;;;;;;;43.93;21.63;;;;;;;0.62;90.46;102711.59;4990241;28;20223;-72
2022/12/03 06:49:44;;;;;;;43.30;21.17;;;;;;;0.60;90.07;102708.97;4992842;28;20340;-73
2022/12/03 06:52:10;;;;;;;41.17;21.30;;;;;;;0.57;90.78;102710.31;4992785;28;20223;-73
2022/12/03 06:54:35;;;;;;;41.83;20.57;;;;;;;0.56;91.38;102709.47;4993932;28;20191;-72
2022/12/03 06:57:01;;;;;;;43.40;20.43;;;;;;;0.57;90.37;102707.03;4994074;28;20188;-73
2022/12/03 06:59:26;;;;;;;44.00;21.47;;;;;;;0.59;91.12;102709.72;4994127;28;20215;-73
2022/12/03 07:01:52;;;;;;;42.00;20.67;;;;;;;0.60;91.15;102706.47;4993991;28;20219;-72
2022/12/03 07:04:17;;;;;;;44.27;21.00;;;;;;;0.59;90.41;102702.16;4992680;28;20198;-73
2022/12/03 07:06:43;;;;;;;42.77;20.53;;;;;;;0.60;91.22;102706.47;4994018;28;20233;-73
2022/12/03 07:09:08;;;;;;;42.73;20.90;;;;;;;0.57;91.19;102713.75;4993609;28;20184;-73
2022/12/03 07:11:39;;;;;;;39.80;21.17;;;;;;;0.53;90.94;102706.66;4991232;28;20239;-72
2022/12/03 07:14:06;;;;;;;40.70;20.10;;;;;;;0.54;90.52;102710.06;4992680;28;20684;-72
2022/12/03 07:16:33;;;;;;;46.67;21.87;;;;;;;0.54;90.66;102707.56;4991596;28;20246;-73
2022/12/03 07:18:59;;;;;;;43.57;20.47;;;;;;;0.54;90.20;102712.59;4992210;28;20196;-73
2022/12/03 07:21:24;;;;;;;43.47;21.27;;;;;;;0.52;90.01;102709.94;4996228;28;20215;-72
2022/12/03 07:23:50;;;;;;;45.30;21.17;;;;;;;0.54;90.50;102715.13;4985714;28;20862;-72
2022/12/03 07:26:16;;;;;;;47.13;20.63;;;;;;;0.51;91.01;102720.75;4990504;28;20191;-71
2022/12/03 07:28:41;;;;;;;44.53;20.60;;;;;;;0.51;90.93;102710.69;4991888;28;20215;-72
2022/12/03 07:31:07;;;;;;;43.33;21.30;;;;;;;0.51;90.68;102710.69;4992838;28;20222;-73
2022/12/03 07:33:32;;;;;;;44.13;21.57;;;;;;;0.55;90.39;102715.22;4993360;28;20196;-73
2022/12/03 07:35:58;;;;;;;42.27;21.90;;;;;;;0.56;90.51;102716.13;4993295;28;20269;-73
2022/12/03 07:38:23;;;;;;;48.80;22.53;;;;;;;0.58;90.23;102715.50;4989815;28;20238;-73
2022/12/03 07:40:49;;;;;;;44.70;21.13;;;;;;;0.56;90.60;102706.94;4993202;28;20294;-73
2022/12/03 07:43:14;;;;;;;43.67;21.80;;;;;;;0.57;91.00;102709.56;5007833;28;20199;-73
2022/12/03 07:45:40;;;;;;;48.73;22.63;;;;;;;0.60;89.95;102711.50;4992969;28;20276;-73
2022/12/03 07:48:05;;;;;;;44.10;21.37;;;;;;;0.63;91.04;102711.75;4972610;28;20274;-73
2022/12/03 07:50:31;;;;;;;45.97;22.33;;;;;;;0.65;90.10;102695.16;4993311;28;20219;-73
2022/12/03 07:52:56;;;;;;;40.43;20.53;;;;;;;0.68;90.25;102702.09;4989908;28;20188;-72
2022/12/03 07:55:24;;;;;;;41.77;20.90;;;;;;;0.72;89.92;102699.97;4990915;28;20192;-72
2022/12/03 07:57:49;;;;;;;48.47;24.07;;;;;;;0.76;90.42;102696.06;4988358;28;20219;-72
2022/12/03 08:00:15;;;;;;;47.70;22.77;;;;;;;0.79;90.14;102699.75;4989639;28;20216;-73
2022/12/03 08:02:41;;;;;;;44.63;22.53;;;;;;;0.81;90.41;102700.78;4988756;28;20204;-72
2022/12/03 08:05:06;;;;;;;43.07;21.63;;;;;;;0.85;90.08;102697.78;4991561;28;20196;-72
2022/12/03 08:07:32;;;;;;;48.90;23.60;;;;;;;0.89;90.19;102689.72;4987458;28;20302;-71
2022/12/03 08:09:57;;;;;;;48.17;21.73;;;;;;;0.97;90.06;102698.84;4988487;28;20195;-73
2022/12/03 08:12:38;;;;;;;45.57;22.73;;;;;;;1.02;90.00;102701.75;4991077;28;20562;-73
2022/12/03 08:15:15;;;;;;;45.07;21.60;;;;;;;1.05;90.62;102700.38;4992397;28;20199;-71
2022/12/03 08:17:41;;;;;;;41.33;20.80;;;;;;;1.03;89.95;102698.47;4988127;28;20270;-73
2022/12/03 08:20:19;;;;;;;44.07;21.10;;;;;;;1.04;90.12;102692.66;4989335;28;20290;-72
2022/12/03 08:22:48;;;;;;;44.07;22.20;;;;;;;1.06;90.21;102694.56;4986878;28;20187;-72
2022/12/03 08:25:25;;;;;;;43.30;21.07;;;;;;;1.10;90.84;102690.69;4991154;28;20192;-73
2022/12/03 08:27:55;;;;;;;38.93;20.90;;;;;;;1.14;90.47;102693.59;4991560;28;20219;-72
2022/12/03 08:30:21;;;;;;;45.03;20.97;;;;;;;1.20;90.28;102691.63;4985992;28;20302;-72
2022/12/03 08:32:47;;;;;;;42.37;21.73;;;;;;;1.27;89.36;102700.56;4991068;28;20787;-70
2022/12/03 08:35:26;;;;;;;44.43;21.60;;;;;;;1.33;89.16;102696.94;4989704;28;20650;-72
2022/12/03 08:38:04;;;;;;;44.93;20.90;;;;;;;1.39;89.81;102696.59;4986670;28;20204;-72
2022/12/03 08:40:39;;;;;;;44.30;21.13;;;;;;;1.40;88.53;102696.72;4988999;28;20214;-72
2022/12/03 08:43:18;;;;;;;42.23;20.67;;;;;;;1.41;89.39;102698.50;4988376;28;20257;-72
2022/12/03 08:45:45;;;;;;;43.53;21.40;;;;;;;1.36;89.27;102697.22;4992006;28;20661;-72
2022/12/03 08:48:35;;;;;;;47.27;21.07;;;;;;;1.41;88.21;102684.97;4989699;28;20677;-72
2022/12/03 08:51:11;;;;;;;42.87;21.50;;;;;;;1.49;88.22;102679.84;4991935;28;20306;-72
2022/12/03 08:53:44;;;;;;;46.23;21.77;;;;;;;1.58;87.91;102673.06;4991046;28;20557;-73
2022/12/03 08:56:10;;;;;;;44.37;20.83;;;;;;;1.80;87.61;102674.09;4989973;28;20242;-72
2022/12/03 08:58:38;;;;;;;40.07;20.17;;;;;;;1.83;87.46;102670.94;4989055;28;20196;-73
2022/12/03 09:01:09;;;;;;;42.50;22.50;;;;;;;1.74;86.60;102667.66;4991762;28;20235;-73
2022/12/03 09:03:54;;;;;;;43.37;20.67;;;;;;;1.71;87.12;102670.81;4971115;28;20196;-73
2022/12/03 09:06:21;;;;;;;50.43;21.97;;;;;;;1.68;86.23;102670.53;4989622;28;20696;-72
2022/12/03 09:08:46;;;;;;;40.97;20.57;;;;;;;1.62;86.82;102665.00;4991348;28;20688;-72
2022/12/03 09:11:13;;;;;;;40.53;20.23;;;;;;;1.63;87.29;102676.84;4989903;28;20375;-73
2022/12/03 09:13:39;;;;;;;44.23;21.17;;;;;;;1.65;86.86;102660.19;4989999;28;20202;-73
2022/12/03 09:16:05;;;;;;;42.50;20.20;;;;;;;1.67;87.45;102657.78;4991859;28;20215;-72
2022/12/03 09:18:31;;;;;;;39.57;19.83;;;;;;;1.65;86.85;102659.31;4991393;28;20616;-72
2022/12/03 09:20:59;;;;;;;41.77;20.27;;;;;;;1.67;87.06;102656.16;4989058;28;20223;-73
2022/12/03 09:23:24;;;;;;;41.43;20.93;;;;;;;1.70;87.09;102656.38;4990980;28;20180;-72
2022/12/03 09:25:50;;;;;;;42.27;19.97;;;;;;;1.71;86.52;102652.25;4988314;28;20697;-73
2022/12/03 09:28:15;;;;;;;42.20;21.10;;;;;;;1.67;85.71;102650.22;4989864;28;20215;-73
2022/12/03 09:30:41;;;;;;;48.43;22.60;;;;;;;1.68;85.61;102651.97;4991053;28;20218;-71
2022/12/03 09:33:27;;;;;;;46.83;22.93;;;;;;;1.74;85.71;102658.41;5117295;27;20521;-70
2022/12/03 09:35:52;;;;;;;41.23;21.50;;;;;;;1.82;85.62;102659.94;5067379;28;20200;-72
2022/12/03 09:38:18;;;;;;;47.07;22.47;;;;;;;1.84;85.42;102657.56;5061591;28;20678;-71
2022/12/03 09:40:43;;;;;;;47.83;21.90;;;;;;;1.92;85.43;102659.09;5064344;28;20709;-71
2022/12/03 09:43:10;;;;;;;49.13;23.67;;;;;;;2.07;85.16;102641.00;5065167;28;20189;-74
2022/12/03 09:45:35;;;;;;;43.57;20.83;;;;;;;2.14;84.25;102647.44;5062697;28;20248;-69
2022/12/03 09:48:02;;;;;;;36.87;20.27;;;;;;;2.14;83.88;102637.31;5061751;28;20269;-71
2022/12/03 09:50:29;;;;;;;45.27;20.90;;;;;;;2.11;83.89;102632.91;5059917;28;20209;-73
2022/12/03 09:52:59;;;;;;;45.47;22.30;;;;;;;2.20;84.80;102630.25;5061992;28;20216;-71
2022/12/03 09:55:26;;;;;;;50.70;24.00;;;;;;;2.37;84.93;102627.44;5063210;28;20193;-70
2022/12/03 09:57:52;;;;;;;44.07;20.93;;;;;;;2.66;83.97;102636.56;5059045;28;20205;-74
2022/12/03 10:00:22;;;;;;;37.87;19.70;;;;;;;2.88;82.26;102629.94;5057226;28;20211;-73
2022/12/03 10:02:50;;;;;;;50.10;24.43;;;;;;;3.20;81.82;102640.00;5066151;28;20276;-74
2022/12/03 10:05:18;;;;;;;58.93;28.03;;;;;;;3.53;80.97;102640.94;5065838;28;20192;-74
2022/12/03 10:07:43;;;;;;;76.23;32.70;;;;;;;3.23;81.37;102637.72;5064969;28;20264;-74
2022/12/03 10:10:24;;;;;;;47.33;23.00;;;;;;;3.17;80.53;102637.25;5062108;28;20716;-74
2022/12/03 10:12:50;;;;;;;38.77;20.67;;;;;;;3.10;80.82;102632.47;5063445;28;20215;-73
2022/12/03 10:15:18;;;;;;;37.03;19.70;;;;;;;3.14;80.34;102637.91;5065097;28;20208;-74
2022/12/03 10:17:46;;;;;;;60.93;25.97;;;;;;;3.04;81.41;102632.88;5061039;28;20231;-73
2022/12/03 10:20:14;;;;;;;40.93;19.50;;;;;;;3.00;81.40;102623.31;5064868;28;20211;-72
2022/12/03 10:22:40;;;;;;;43.67;22.10;;;;;;;3.12;81.01;102623.38;5061686;28;20193;-72
2022/12/03 10:25:10;;;;;;;59.60;26.53;;;;;;;3.04;81.94;102620.22;5062078;28;20198;-73
2022/12/03 10:27:36;;;;;;;40.07;21.20;;;;;;;2.92;81.51;102623.44;5060943;28;20197;-73
2022/12/03 10:30:12;;;;;;;58.03;26.47;;;;;;;2.84;82.64;102616.91;5057766;28;20213;-73
2022/12/03 10:32:42;;;;;;;43.97;20.87;;;;;;;2.79;81.88;102618.19;5061827;28;20217;-73
2022/12/03 10:35:11;;;;;;;37.80;20.40;;;;;;;2.77;82.49;102612.16;5064790;28;20654;-74
2022/12/03 10:38:05;;;;;;;41.87;20.67;;;;;;;2.71;81.81;102610.00;5065199;28;20212;-74
2022/12/03 10:40:39;;;;;;;35.40;18.63;;;;;;;2.66;82.31;102611.28;5057941;28;20201;-73
2022/12/03 10:43:11;;;;;;;36.30;19.17;;;;;;;2.69;82.30;102609.03;5039955;28;20208;-73
2022/12/03 10:45:36;;;;;;;36.53;19.43;;;;;;;2.73;82.73;102603.44;5052219;28;20218;-73
2022/12/03 10:48:11;;;;;;;38.57;19.13;;;;;;;2.72;82.42;102608.38;5051416;28;20627;-72
2022/12/03 10:50:44;;;;;;;36.03;18.83;;;;;;;2.63;82.01;102608.53;5052123;28;20213;-74
2022/12/03 10:53:10;;;;;;;38.67;20.13;;;;;;;2.64;81.99;102605.25;5050611;28;20202;-73
2022/12/03 10:55:39;;;;;;;38.20;18.90;;;;;;;2.64;83.06;102590.09;5052314;28;20213;-72
2022/12/03 10:58:05;;;;;;;40.63;20.43;;;;;;;2.68;83.10;102597.16;5046339;28;20280;-74
2022/12/03 11:00:30;;;;;;;36.00;18.97;;;;;;;2.66;82.90;102585.16;5050618;28;20309;-75
2022/12/03 11:02:56;;;;;;;34.93;18.77;;;;;;;2.66;82.68;102591.06;5047723;28;20190;-74
2022/12/03 11:05:25;;;;;;;35.67;18.50;;;;;;;2.67;82.33;102585.25;5051960;28;20284;-74
2022/12/03 11:07:51;;;;;;;39.47;21.00;;;;;;;2.61;81.84;102582.25;5051857;28;20205;-72
2022/12/03 11:10:18;;;;;;;36.40;19.43;;;;;;;2.65;81.85;102579.19;5050027;28;20213;-72
2022/12/03 11:13:22;;;;;;;35.97;18.93;;;;;;;2.85;82.30;102580.75;5042298;28;20227;-73
2022/12/03 11:15:47;;;;;;;34.43;17.93;;;;;;;2.95;81.50;102573.13;5011680;28;20187;-72
2022/12/03 11:18:35;;;;;;;36.33;18.90;;;;;;;2.98;81.02;102570.78;5007958;28;20194;-73
2022/12/03 11:21:13;;;;;;;36.13;18.70;;;;;;;3.01;81.07;102564.34;5011533;28;20199;-74
2022/12/03 11:23:44;;;;;;;36.40;18.23;;;;;;;2.96;80.70;102563.13;5011801;28;20645;-74
2022/12/03 11:26:25;;;;;;;32.77;18.40;;;;;;;2.85;80.00;102558.00;5008984;28;20191;-73
2022/12/03 11:28:53;;;;;;;33.17;17.97;;;;;;;2.85;80.03;102558.84;5008871;28;20187;-75
2022/12/03 11:31:42;;;;;;;36.20;17.70;;;;;;;2.83;79.52;102560.41;5008449;28;20227;-75
2022/12/03 11:34:17;;;;;;;33.90;18.13;;;;;;;2.83;79.41;102552.81;5008174;28;20191;-73
2022/12/03 11:37:10;;;;;;;33.20;17.67;;;;;;;2.78;79.79;102561.69;5011564;28;20190;-73
2022/12/03 11:39:50;;;;;;;37.37;19.53;;;;;;;2.72;79.80;102550.22;5011630;28;20192;-73
2022/12/03 11:42:25;;;;;;;39.17;20.20;;;;;;;2.74;80.09;102553.72;5008315;28;20274;-73